Alyeska Resort
Hourly Weather - Base Weather Site
ALY_BASE_HR 1/26/2015
CLICK TO VIEW GRAPH!!

        DATE  TIME   Air  BATT   H2o   H2o   Rel
                    Temp  Volt  Inch Since  Hum%
                      F   AVG   1HR  0600   AVG

   1/26/2015 11:00     6 14.43  0.00  0.00    87
   1/26/2015 10:00     5 14.43  0.00  0.00    87
   1/26/2015 09:00     5 14.43  0.00  0.00    87
   1/26/2015 08:00     5 14.43  0.00  0.00    87
   1/26/2015 07:00     5 14.44  0.00  0.00    87
   1/26/2015 06:00     4 14.45  0.00  0.00    87
   1/26/2015 05:00     4 14.45  0.00  0.00    87
   1/26/2015 04:00     4 14.45  0.00  0.00    87
   1/26/2015 03:00     3 14.45  0.00  0.00    86
   1/26/2015 02:00     2 14.46  0.00  0.00    87
   1/26/2015 01:00     3 14.45  0.00  0.00    86
   1/25/2015 24:00     3 14.46  0.00  0.00    86
   1/25/2015 23:00     3 14.46  0.00  0.00    87
   1/25/2015 22:00     3 14.45  0.00  0.00    87
   1/25/2015 21:00     3 14.45  0.00  0.00    85
   1/25/2015 20:00     5 14.43  0.00  0.00    85
   1/25/2015 19:00     5 14.41  0.00  0.00    84
   1/25/2015 18:00     7 14.38  0.00  0.00    79
   1/25/2015 17:00    12 14.34  0.00  0.00    68
   1/25/2015 16:00    12 14.33  0.00  0.00    71
   1/25/2015 15:00    11 14.38  0.00  0.00    67
   1/25/2015 14:00    12 14.41  0.00  0.00    64
   1/25/2015 13:00     8 14.44  0.00  0.00    76
   1/25/2015 12:00     6 14.44  0.00  0.00    84


CLICK TO VIEW GRAPH!!